sensor_id;sensor_type;location;lat;lon;timestamp;pressure;altitude;pressure_sealevel;temperature;humidity
45323;BME280;31382;50.200;8.674;2024-02-15T00:04:37;100730.25;;;12.70;78.65
45323;BME280;31382;50.200;8.674;2024-02-15T00:09:38;100725.63;;;12.79;78.36
45323;BME280;31382;50.200;8.674;2024-02-15T00:14:40;100731.91;;;12.71;78.80
45323;BME280;31382;50.200;8.674;2024-02-15T00:19:42;100720.13;;;12.72;78.47
45323;BME280;31382;50.200;8.674;2024-02-15T00:24:44;100725.03;;;12.68;78.69
45323;BME280;31382;50.200;8.674;2024-02-15T00:29:47;100722.34;;;12.68;78.75
45323;BME280;31382;50.200;8.674;2024-02-15T00:34:49;100723.72;;;12.64;79.12
45323;BME280;31382;50.200;8.674;2024-02-15T00:39:51;100713.28;;;12.61;78.75
45323;BME280;31382;50.200;8.674;2024-02-15T00:44:53;100716.94;;;12.45;78.68
45323;BME280;31382;50.200;8.674;2024-02-15T00:49:56;100712.97;;;12.33;78.72
45323;BME280;31382;50.200;8.674;2024-02-15T00:54:58;100709.31;;;12.26;78.87
45323;BME280;31382;50.200;8.674;2024-02-15T01:00:00;100723.28;;;12.29;78.82
45323;BME280;31382;50.200;8.674;2024-02-15T01:05:04;100722.78;;;12.26;79.05
45323;BME280;31382;50.200;8.674;2024-02-15T01:10:06;100723.94;;;12.32;78.88
45323;BME280;31382;50.200;8.674;2024-02-15T01:15:08;100734.00;;;12.38;78.38
45323;BME280;31382;50.200;8.674;2024-02-15T01:20:11;100738.16;;;12.48;78.15
45323;BME280;31382;50.200;8.674;2024-02-15T01:25:13;100729.94;;;12.65;77.87
45323;BME280;31382;50.200;8.674;2024-02-15T01:30:18;100728.44;;;12.62;77.85
45323;BME280;31382;50.200;8.674;2024-02-15T01:35:20;100729.16;;;12.56;78.28
45323;BME280;31382;50.200;8.674;2024-02-15T01:40:26;100726.03;;;12.67;77.93
45323;BME280;31382;50.200;8.674;2024-02-15T01:45:27;100727.31;;;12.80;77.58
45323;BME280;31382;50.200;8.674;2024-02-15T01:50:30;100718.84;;;12.83;77.37
45323;BME280;31382;50.200;8.674;2024-02-15T01:55:34;100715.78;;;12.86;77.27
45323;BME280;31382;50.200;8.674;2024-02-15T02:00:37;100707.13;;;12.90;77.16
45323;BME280;31382;50.200;8.674;2024-02-15T02:05:42;100710.31;;;12.94;77.74
45323;BME280;31382;50.200;8.674;2024-02-15T02:10:44;100710.31;;;12.94;77.53
45323;BME280;31382;50.200;8.674;2024-02-15T02:15:47;100715.06;;;12.92;77.35
45323;BME280;31382;50.200;8.674;2024-02-15T02:20:49;100708.28;;;12.96;77.17
45323;BME280;31382;50.200;8.674;2024-02-15T02:25:52;100704.25;;;12.92;77.72
45323;BME280;31382;50.200;8.674;2024-02-15T02:30:55;100716.63;;;12.86;77.61
45323;BME280;31382;50.200;8.674;2024-02-15T02:35:58;100713.25;;;12.84;78.14
45323;BME280;31382;50.200;8.674;2024-02-15T02:40:59;100702.66;;;12.83;77.82
45323;BME280;31382;50.200;8.674;2024-02-15T02:46:01;100703.53;;;12.98;77.57
45323;BME280;31382;50.200;8.674;2024-02-15T02:51:03;100696.38;;;13.05;77.29
45323;BME280;31382;50.200;8.674;2024-02-15T02:56:05;100709.78;;;13.14;77.31
45323;BME280;31382;50.200;8.674;2024-02-15T03:01:13;100709.97;;;13.12;76.95
45323;BME280;31382;50.200;8.674;2024-02-15T03:06:15;100698.88;;;13.07;77.05
45323;BME280;31382;50.200;8.674;2024-02-15T03:11:17;100704.66;;;13.04;77.19
45323;BME280;31382;50.200;8.674;2024-02-15T03:16:22;100696.19;;;13.07;77.25
45323;BME280;31382;50.200;8.674;2024-02-15T03:21:27;100696.66;;;13.10;76.69
45323;BME280;31382;50.200;8.674;2024-02-15T03:26:32;100693.28;;;12.94;77.55
45323;BME280;31382;50.200;8.674;2024-02-15T03:31:38;100692.16;;;12.88;77.51
45323;BME280;31382;50.200;8.674;2024-02-15T03:36:41;100687.53;;;12.74;77.80
45323;BME280;31382;50.200;8.674;2024-02-15T03:41:43;100687.38;;;12.75;77.77
45323;BME280;31382;50.200;8.674;2024-02-15T03:46:47;100690.63;;;12.70;77.73
45323;BME280;31382;50.200;8.674;2024-02-15T03:51:53;100696.56;;;12.66;78.00
45323;BME280;31382;50.200;8.674;2024-02-15T03:56:57;100686.44;;;12.68;77.57
45323;BME280;31382;50.200;8.674;2024-02-15T04:01:59;100692.66;;;12.68;77.64
45323;BME280;31382;50.200;8.674;2024-02-15T04:07:00;100693.88;;;12.66;77.82
45323;BME280;31382;50.200;8.674;2024-02-15T04:12:03;100702.72;;;12.75;77.25
45323;BME280;31382;50.200;8.674;2024-02-15T04:17:05;100688.88;;;12.78;77.13
45323;BME280;31382;50.200;8.674;2024-02-15T04:22:06;100692.41;;;12.78;77.22
45323;BME280;31382;50.200;8.674;2024-02-15T04:27:12;100690.94;;;12.76;77.51
45323;BME280;31382;50.200;8.674;2024-02-15T04:32:24;100687.03;;;12.78;77.16
45323;BME280;31382;50.200;8.674;2024-02-15T04:37:26;100686.06;;;12.71;77.45
45323;BME280;31382;50.200;8.674;2024-02-15T04:42:30;100684.41;;;12.70;77.35
45323;BME280;31382;50.200;8.674;2024-02-15T04:47:36;100678.13;;;12.69;77.39
45323;BME280;31382;50.200;8.674;2024-02-15T04:52:38;100682.63;;;12.77;77.27
45323;BME280;31382;50.200;8.674;2024-02-15T04:57:40;100681.06;;;12.83;76.94
45323;BME280;31382;50.200;8.674;2024-02-15T05:02:42;100666.81;;;12.74;77.13
45323;BME280;31382;50.200;8.674;2024-02-15T05:07:45;100664.31;;;12.73;76.80
45323;BME280;31382;50.200;8.674;2024-02-15T05:12:46;100672.22;;;12.74;77.49
45323;BME280;31382;50.200;8.674;2024-02-15T05:17:51;100664.47;;;12.71;76.98
45323;BME280;31382;50.200;8.674;2024-02-15T05:22:57;100661.69;;;12.64;77.26
45323;BME280;31382;50.200;8.674;2024-02-15T05:27:59;100671.75;;;12.70;76.97
45323;BME280;31382;50.200;8.674;2024-02-15T05:33:01;100662.50;;;12.65;76.98
45323;BME280;31382;50.200;8.674;2024-02-15T05:38:04;100673.06;;;12.52;77.40
45323;BME280;31382;50.200;8.674;2024-02-15T05:43:07;100681.63;;;12.55;77.42
45323;BME280;31382;50.200;8.674;2024-02-15T05:48:09;100677.72;;;12.58;77.16
45323;BME280;31382;50.200;8.674;2024-02-15T05:53:14;100684.09;;;12.65;77.05
45323;BME280;31382;50.200;8.674;2024-02-15T05:58:18;100690.69;;;12.62;76.95
45323;BME280;31382;50.200;8.674;2024-02-15T06:03:20;100681.47;;;12.57;77.20
45323;BME280;31382;50.200;8.674;2024-02-15T06:08:26;100681.47;;;12.57;77.56
45323;BME280;31382;50.200;8.674;2024-02-15T06:13:29;100683.50;;;12.55;77.35
45323;BME280;31382;50.200;8.674;2024-02-15T06:18:34;100688.34;;;12.59;77.10
45323;BME280;31382;50.200;8.674;2024-02-15T06:23:36;100690.97;;;12.67;76.72
45323;BME280;31382;50.200;8.674;2024-02-15T06:28:39;100684.66;;;12.75;76.75
45323;BME280;31382;50.200;8.674;2024-02-15T06:33:59;100685.06;;;12.72;76.96
45323;BME280;31382;50.200;8.674;2024-02-15T06:39:20;100688.94;;;12.69;76.98
45323;BME280;31382;50.200;8.674;2024-02-15T06:44:44;100681.78;;;12.77;76.97
45323;BME280;31382;50.200;8.674;2024-02-15T06:49:47;100674.34;;;12.79;76.78
45323;BME280;31382;50.200;8.674;2024-02-15T06:54:54;100668.06;;;12.86;76.38
45323;BME280;31382;50.200;8.674;2024-02-15T06:59:57;100660.06;;;12.93;76.58
45323;BME280;31382;50.200;8.674;2024-02-15T07:04:59;100647.88;;;12.97;76.32
45323;BME280;31382;50.200;8.674;2024-02-15T07:10:01;100643.81;;;13.01;76.09
45323;BME280;31382;50.200;8.674;2024-02-15T07:15:05;100658.38;;;12.92;76.18
45323;BME280;31382;50.200;8.674;2024-02-15T07:20:11;100658.09;;;12.87;75.92
45323;BME280;31382;50.200;8.674;2024-02-15T07:25:12;100665.53;;;12.85;75.96
45323;BME280;31382;50.200;8.674;2024-02-15T07:30:15;100664.22;;;12.81;75.90
45323;BME280;31382;50.200;8.674;2024-02-15T07:35:17;100666.09;;;12.80;75.99
45323;BME280;31382;50.200;8.674;2024-02-15T07:40:19;100666.09;;;12.80;76.12
45323;BME280;31382;50.200;8.674;2024-02-15T07:45:23;100663.66;;;12.85;75.94
45323;BME280;31382;50.200;8.674;2024-02-15T07:50:24;100674.34;;;12.79;76.07
45323;BME280;31382;50.200;8.674;2024-02-15T07:55:26;100668.78;;;12.80;76.27
45323;BME280;31382;50.200;8.674;2024-02-15T08:00:27;100670.53;;;12.73;76.71
45323;BME280;31382;50.200;8.674;2024-02-15T08:05:29;100665.84;;;12.90;76.52
45323;BME280;31382;50.200;8.674;2024-02-15T08:10:31;100676.28;;;13.08;76.37
45323;BME280;31382;50.200;8.674;2024-02-15T08:15:33;100678.16;;;13.22;76.14
45323;BME280;31382;50.200;8.674;2024-02-15T08:20:35;100689.25;;;13.27;76.26
45323;BME280;31382;50.200;8.674;2024-02-15T08:25:38;100671.94;;;13.37;76.24
45323;BME280;31382;50.200;8.674;2024-02-15T08:30:41;100684.44;;;13.53;75.87
45323;BME280;31382;50.200;8.674;2024-02-15T08:35:42;100688.06;;;13.45;75.97
45323;BME280;31382;50.200;8.674;2024-02-15T08:40:46;100677.16;;;13.53;75.79
45323;BME280;31382;50.200;8.674;2024-02-15T08:45:48;100673.06;;;13.57;75.76
45323;BME280;31382;50.200;8.674;2024-02-15T08:50:51;100669.41;;;13.65;75.76
45323;BME280;31382;50.200;8.674;2024-02-15T08:55:53;100670.44;;;13.79;75.45
45323;BME280;31382;50.200;8.674;2024-02-15T09:00:54;100671.59;;;13.91;75.16
45323;BME280;31382;50.200;8.674;2024-02-15T09:05:56;100678.03;;;13.90;75.31
45323;BME280;31382;50.200;8.674;2024-02-15T09:10:59;100679.53;;;13.93;75.57
45323;BME280;31382;50.200;8.674;2024-02-15T09:16:01;100677.53;;;14.01;75.07
45323;BME280;31382;50.200;8.674;2024-02-15T09:21:04;100680.75;;;14.12;74.92
45323;BME280;31382;50.200;8.674;2024-02-15T09:26:06;100675.19;;;14.35;74.48
45323;BME280;31382;50.200;8.674;2024-02-15T09:31:14;100673.34;;;14.57;74.04
45323;BME280;31382;50.200;8.674;2024-02-15T09:36:16;100669.06;;;14.69;73.66
45323;BME280;31382;50.200;8.674;2024-02-15T09:41:18;100661.06;;;14.82;73.33
45323;BME280;31382;50.200;8.674;2024-02-15T09:46:19;100649.22;;;14.83;73.15
45323;BME280;31382;50.200;8.674;2024-02-15T09:51:21;100639.91;;;14.93;72.63
45323;BME280;31382;50.200;8.674;2024-02-15T09:56:25;100643.75;;;15.05;72.39
45323;BME280;31382;50.200;8.674;2024-02-15T10:01:31;100646.66;;;15.03;72.16
45323;BME280;31382;50.200;8.674;2024-02-15T10:06:33;100647.16;;;15.14;71.93
45323;BME280;31382;50.200;8.674;2024-02-15T10:11:34;100652.91;;;15.04;72.05
45323;BME280;31382;50.200;8.674;2024-02-15T10:16:36;100649.56;;;15.02;71.66
45323;BME280;31382;50.200;8.674;2024-02-15T10:21:39;100650.81;;;14.99;71.59
45323;BME280;31382;50.200;8.674;2024-02-15T10:26:43;100636.56;;;15.19;71.00
45323;BME280;31382;50.200;8.674;2024-02-15T10:31:55;100620.59;;;15.37;70.55
45323;BME280;31382;50.200;8.674;2024-02-15T10:37:13;100623.59;;;15.56;70.23
45323;BME280;31382;50.200;8.674;2024-02-15T10:42:15;100618.22;;;15.62;70.35
45323;BME280;31382;50.200;8.674;2024-02-15T10:47:19;100609.53;;;15.74;70.00
45323;BME280;31382;50.200;8.674;2024-02-15T10:52:22;100603.50;;;15.85;69.54
45323;BME280;31382;50.200;8.674;2024-02-15T10:57:26;100599.63;;;16.08;69.19
45323;BME280;31382;50.200;8.674;2024-02-15T11:02:31;100605.50;;;16.31;68.35
45323;BME280;31382;50.200;8.674;2024-02-15T11:07:36;100591.28;;;16.42;68.36
45323;BME280;31382;50.200;8.674;2024-02-15T11:12:38;100581.28;;;16.43;68.11
45323;BME280;31382;50.200;8.674;2024-02-15T11:17:46;100583.75;;;16.44;67.90
45323;BME280;31382;50.200;8.674;2024-02-15T11:22:56;100572.31;;;16.36;67.76
45323;BME280;31382;50.200;8.674;2024-02-15T11:27:57;100573.75;;;16.38;67.79
45323;BME280;31382;50.200;8.674;2024-02-15T11:32:59;100560.19;;;16.45;67.55
45323;BME280;31382;50.200;8.674;2024-02-15T11:38:27;100545.34;;;16.88;66.54
45323;BME280;31382;50.200;8.674;2024-02-15T11:43:49;100538.84;;;16.95;66.52
45323;BME280;31382;50.200;8.674;2024-02-15T11:48:52;100536.72;;;17.11;65.93
45323;BME280;31382;50.200;8.674;2024-02-15T11:59:06;100522.50;;;17.54;64.95
45323;BME280;31382;50.200;8.674;2024-02-15T12:04:08;100520.72;;;17.73;64.34
45323;BME280;31382;50.200;8.674;2024-02-15T12:09:28;100521.88;;;17.90;63.64
45323;BME280;31382;50.200;8.674;2024-02-15T12:15:02;100514.25;;;18.06;63.18
45323;BME280;31382;50.200;8.674;2024-02-15T12:20:23;100529.56;;;18.25;62.64
45323;BME280;31382;50.200;8.674;2024-02-15T12:25:27;100517.38;;;17.71;63.49
45323;BME280;31382;50.200;8.674;2024-02-15T12:30:33;100506.38;;;17.59;63.36
45323;BME280;31382;50.200;8.674;2024-02-15T12:35:37;100501.66;;;17.73;62.76
45323;BME280;31382;50.200;8.674;2024-02-15T12:40:39;100503.72;;;17.84;62.41
45323;BME280;31382;50.200;8.674;2024-02-15T12:45:45;100497.66;;;17.82;62.80
45323;BME280;31382;50.200;8.674;2024-02-15T12:50:47;100493.84;;;17.83;62.09
45323;BME280;31382;50.200;8.674;2024-02-15T12:55:53;100480.88;;;17.92;61.60
45323;BME280;31382;50.200;8.674;2024-02-15T13:00:56;100472.53;;;18.12;61.02
45323;BME280;31382;50.200;8.674;2024-02-15T13:06:01;100468.44;;;18.46;59.93
45323;BME280;31382;50.200;8.674;2024-02-15T13:11:03;100472.75;;;18.35;60.38
45323;BME280;31382;50.200;8.674;2024-02-15T13:16:08;100466.69;;;18.33;60.31
45323;BME280;31382;50.200;8.674;2024-02-15T13:21:10;100459.22;;;18.47;59.72
45323;BME280;31382;50.200;8.674;2024-02-15T13:26:12;100455.34;;;18.36;60.04
45323;BME280;31382;50.200;8.674;2024-02-15T13:31:16;100458.53;;;18.33;59.70
45323;BME280;31382;50.200;8.674;2024-02-15T13:36:17;100444.22;;;18.38;59.26
45323;BME280;31382;50.200;8.674;2024-02-15T13:41:21;100439.69;;;18.32;58.89
45323;BME280;31382;50.200;8.674;2024-02-15T13:46:22;100428.84;;;18.07;59.14
45323;BME280;31382;50.200;8.674;2024-02-15T13:51:24;100420.41;;;18.15;58.76
45323;BME280;31382;50.200;8.674;2024-02-15T13:56:26;100427.78;;;18.08;58.67
45323;BME280;31382;50.200;8.674;2024-02-15T14:01:28;100425.03;;;17.89;59.00
45323;BME280;31382;50.200;8.674;2024-02-15T14:06:29;100424.03;;;17.77;59.18
45323;BME280;31382;50.200;8.674;2024-02-15T14:11:31;100415.13;;;17.70;58.98
45323;BME280;31382;50.200;8.674;2024-02-15T14:16:33;100396.19;;;17.81;58.67
45323;BME280;31382;50.200;8.674;2024-02-15T14:21:35;100390.16;;;17.79;58.75
45323;BME280;31382;50.200;8.674;2024-02-15T14:26:40;100383.44;;;17.82;58.44
45323;BME280;31382;50.200;8.674;2024-02-15T14:31:42;100385.47;;;17.93;58.30
45323;BME280;31382;50.200;8.674;2024-02-15T14:37:02;100383.53;;;17.69;58.66
45323;BME280;31382;50.200;8.674;2024-02-15T14:42:07;100368.53;;;17.59;58.75
45323;BME280;31382;50.200;8.674;2024-02-15T14:47:14;100371.16;;;17.73;58.17
45323;BME280;31382;50.200;8.674;2024-02-15T14:52:15;100368.19;;;17.56;58.46
45323;BME280;31382;50.200;8.674;2024-02-15T14:57:17;100366.47;;;17.61;58.33
45323;BME280;31382;50.200;8.674;2024-02-15T15:02:22;100357.03;;;17.64;58.15
45323;BME280;31382;50.200;8.674;2024-02-15T15:07:24;100348.97;;;17.51;58.50
45323;BME280;31382;50.200;8.674;2024-02-15T15:12:45;100348.47;;;17.60;58.14
45323;BME280;31382;50.200;8.674;2024-02-15T15:17:47;100353.59;;;17.50;58.39
45323;BME280;31382;50.200;8.674;2024-02-15T15:22:49;100359.22;;;17.23;58.99
45323;BME280;31382;50.200;8.674;2024-02-15T15:27:51;100353.16;;;17.21;58.91
45323;BME280;31382;50.200;8.674;2024-02-15T15:32:53;100336.72;;;17.16;58.93
45323;BME280;31382;50.200;8.674;2024-02-15T15:37:58;100342.44;;;17.01;59.13
45323;BME280;31382;50.200;8.674;2024-02-15T15:43:00;100333.53;;;16.94;59.47
45323;BME280;31382;50.200;8.674;2024-02-15T15:48:04;100319.50;;;16.97;59.17
45323;BME280;31382;50.200;8.674;2024-02-15T15:53:06;100325.13;;;16.96;59.25
45323;BME280;31382;50.200;8.674;2024-02-15T15:58:07;100309.09;;;16.88;59.61
45323;BME280;31382;50.200;8.674;2024-02-15T16:03:09;100320.97;;;16.93;59.24
45323;BME280;31382;50.200;8.674;2024-02-15T16:08:11;100319.28;;;16.99;59.15
45323;BME280;31382;50.200;8.674;2024-02-15T16:13:13;100316.78;;;16.97;59.25
45323;BME280;31382;50.200;8.674;2024-02-15T16:18:14;100309.28;;;16.93;59.45
45323;BME280;31382;50.200;8.674;2024-02-15T16:23:16;100309.56;;;16.84;59.74
45323;BME280;31382;50.200;8.674;2024-02-15T16:28:19;100298.91;;;16.76;60.15
45323;BME280;31382;50.200;8.674;2024-02-15T16:33:20;100297.50;;;16.67;60.53
45323;BME280;31382;50.200;8.674;2024-02-15T16:38:22;100290.03;;;16.56;61.07
45323;BME280;31382;50.200;8.674;2024-02-15T16:43:24;100286.16;;;16.45;61.30
45323;BME280;31382;50.200;8.674;2024-02-15T16:48:27;100289.94;;;16.37;61.31
45323;BME280;31382;50.200;8.674;2024-02-15T16:53:30;100293.72;;;16.23;61.70
45323;BME280;31382;50.200;8.674;2024-02-15T16:58:32;100292.28;;;16.20;62.03
45323;BME280;31382;50.200;8.674;2024-02-15T17:03:34;100287.53;;;16.16;62.00
45323;BME280;31382;50.200;8.674;2024-02-15T17:08:36;100290.47;;;16.08;62.29
45323;BME280;31382;50.200;8.674;2024-02-15T17:13:38;100294.47;;;15.98;62.58
45323;BME280;31382;50.200;8.674;2024-02-15T17:18:44;100290.72;;;15.93;62.89
45323;BME280;31382;50.200;8.674;2024-02-15T17:23:46;100303.47;;;15.79;63.32
45323;BME280;31382;50.200;8.674;2024-02-15T17:28:48;100306.38;;;15.64;63.91
45323;BME280;31382;50.200;8.674;2024-02-15T17:33:49;100299.09;;;15.64;63.79
45323;BME280;31382;50.200;8.674;2024-02-15T17:38:51;100299.69;;;15.60;64.02
45323;BME280;31382;50.200;8.674;2024-02-15T17:43:54;100295.13;;;15.54;64.26
45323;BME280;31382;50.200;8.674;2024-02-15T17:49:01;100292.22;;;15.49;64.53
45323;BME280;31382;50.200;8.674;2024-02-15T17:54:04;100282.00;;;15.44;64.64
45323;BME280;31382;50.200;8.674;2024-02-15T17:59:07;100274.72;;;15.38;64.88
45323;BME280;31382;50.200;8.674;2024-02-15T18:04:11;100266.41;;;15.33;65.21
45323;BME280;31382;50.200;8.674;2024-02-15T18:09:12;100259.94;;;15.27;65.12
45323;BME280;31382;50.200;8.674;2024-02-15T18:14:14;100250.16;;;15.19;65.50
45323;BME280;31382;50.200;8.674;2024-02-15T18:19:18;100241.19;;;15.19;65.58
45323;BME280;31382;50.200;8.674;2024-02-15T18:24:21;100237.44;;;15.13;65.88
45323;BME280;31382;50.200;8.674;2024-02-15T18:29:22;100224.75;;;15.14;65.92
45323;BME280;31382;50.200;8.674;2024-02-15T18:34:24;100261.78;;;14.86;66.57
45323;BME280;31382;50.200;8.674;2024-02-15T18:39:26;100250.72;;;14.68;67.28
45323;BME280;31382;50.200;8.674;2024-02-15T18:44:30;100263.88;;;14.71;67.06
45323;BME280;31382;50.200;8.674;2024-02-15T18:49:35;100246.34;;;14.67;67.21
45323;BME280;31382;50.200;8.674;2024-02-15T18:54:44;100250.13;;;14.86;66.54
45323;BME280;31382;50.200;8.674;2024-02-15T18:59:45;100231.81;;;14.88;66.59
45323;BME280;31382;50.200;8.674;2024-02-15T19:04:47;100228.88;;;14.83;66.70
45323;BME280;31382;50.200;8.674;2024-02-15T19:09:48;100228.88;;;14.76;66.78
45323;BME280;31382;50.200;8.674;2024-02-15T19:14:51;100229.94;;;14.75;66.59
45323;BME280;31382;50.200;8.674;2024-02-15T19:19:53;100226.38;;;14.61;67.10
45323;BME280;31382;50.200;8.674;2024-02-15T19:24:55;100218.03;;;14.63;66.91
45323;BME280;31382;50.200;8.674;2024-02-15T19:29:57;100220.09;;;14.47;67.42
45323;BME280;31382;50.200;8.674;2024-02-15T19:34:58;100214.44;;;14.49;67.15
45323;BME280;31382;50.200;8.674;2024-02-15T19:40:02;100192.59;;;14.44;67.33
45323;BME280;31382;50.200;8.674;2024-02-15T19:45:09;100195.09;;;14.32;67.45
45323;BME280;31382;50.200;8.674;2024-02-15T19:50:10;100188.19;;;14.23;67.64
45323;BME280;31382;50.200;8.674;2024-02-15T19:55:15;100192.53;;;14.17;67.82
45323;BME280;31382;50.200;8.674;2024-02-15T20:00:17;100180.25;;;14.08;67.86
45323;BME280;31382;50.200;8.674;2024-02-15T20:05:19;100178.53;;;13.94;68.09
45323;BME280;31382;50.200;8.674;2024-02-15T20:10:21;100170.16;;;13.82;68.65
45323;BME280;31382;50.200;8.674;2024-02-15T20:15:24;100184.72;;;13.81;68.52
45323;BME280;31382;50.200;8.674;2024-02-15T20:20:27;100172.44;;;13.78;68.62
45323;BME280;31382;50.200;8.674;2024-02-15T20:25:30;100146.66;;;13.76;68.79
45323;BME280;31382;50.200;8.674;2024-02-15T20:30:31;100155.38;;;13.71;68.71
45323;BME280;31382;50.200;8.674;2024-02-15T20:35:35;100152.03;;;13.69;68.65
45323;BME280;31382;50.200;8.674;2024-02-15T20:40:36;100158.47;;;13.68;69.14
45323;BME280;31382;50.200;8.674;2024-02-15T20:45:38;100161.22;;;13.75;68.78
45323;BME280;31382;50.200;8.674;2024-02-15T20:50:42;100169.44;;;13.60;69.35
45323;BME280;31382;50.200;8.674;2024-02-15T20:55:45;100162.44;;;13.72;68.94
45323;BME280;31382;50.200;8.674;2024-02-15T21:00:48;100174.09;;;13.73;68.78
45323;BME280;31382;50.200;8.674;2024-02-15T21:05:50;100172.38;;;13.65;69.30
45323;BME280;31382;50.200;8.674;2024-02-15T21:10:53;100167.69;;;13.80;68.83
45323;BME280;31382;50.200;8.674;2024-02-15T21:16:01;100163.75;;;13.83;68.66
45323;BME280;31382;50.200;8.674;2024-02-15T21:21:08;100154.31;;;13.72;69.03
45323;BME280;31382;50.200;8.674;2024-02-15T21:26:10;100148.72;;;13.74;68.63
45323;BME280;31382;50.200;8.674;2024-02-15T21:31:12;100160.72;;;13.58;68.98
45323;BME280;31382;50.200;8.674;2024-02-15T21:36:17;100155.47;;;13.49;69.13
45323;BME280;31382;50.200;8.674;2024-02-15T21:41:19;100152.34;;;13.46;68.93
45323;BME280;31382;50.200;8.674;2024-02-15T21:46:21;100141.72;;;13.44;68.87
45323;BME280;31382;50.200;8.674;2024-02-15T21:51:23;100141.31;;;13.41;68.83
45323;BME280;31382;50.200;8.674;2024-02-15T21:56:25;100142.72;;;13.37;68.94
45323;BME280;31382;50.200;8.674;2024-02-15T22:01:27;100140.81;;;13.31;69.20
45323;BME280;31382;50.200;8.674;2024-02-15T22:06:29;100141.88;;;13.01;69.74
45323;BME280;31382;50.200;8.674;2024-02-15T22:11:31;100137.25;;;12.95;69.95
45323;BME280;31382;50.200;8.674;2024-02-15T22:16:33;100141.63;;;12.96;69.65
45323;BME280;31382;50.200;8.674;2024-02-15T22:21:35;100138.63;;;12.84;69.68
45323;BME280;31382;50.200;8.674;2024-02-15T22:26:37;100146.88;;;12.76;70.04
45323;BME280;31382;50.200;8.674;2024-02-15T22:31:40;100139.81;;;12.75;69.66
45323;BME280;31382;50.200;8.674;2024-02-15T22:36:41;100141.47;;;12.76;69.70
45323;BME280;31382;50.200;8.674;2024-02-15T22:41:43;100137.56;;;12.79;69.92
45323;BME280;31382;50.200;8.674;2024-02-15T22:46:48;100131.34;;;12.78;69.97
45323;BME280;31382;50.200;8.674;2024-02-15T22:51:50;100131.72;;;12.75;70.02
45323;BME280;31382;50.200;8.674;2024-02-15T22:56:52;100143.81;;;12.58;70.49
45323;BME280;31382;50.200;8.674;2024-02-15T23:01:53;100136.81;;;12.63;70.08
45323;BME280;31382;50.200;8.674;2024-02-15T23:06:55;100143.06;;;12.64;70.06
45323;BME280;31382;50.200;8.674;2024-02-15T23:11:57;100145.78;;;12.70;69.77
45323;BME280;31382;50.200;8.674;2024-02-15T23:17:00;100144.50;;;12.66;69.96
45323;BME280;31382;50.200;8.674;2024-02-15T23:22:01;100148.78;;;12.54;70.46
45323;BME280;31382;50.200;8.674;2024-02-15T23:27:03;100144.44;;;12.60;70.57
45323;BME280;31382;50.200;8.674;2024-02-15T23:32:07;100156.97;;;12.46;70.79
45323;BME280;31382;50.200;8.674;2024-02-15T23:37:09;100152.03;;;12.49;70.52
45323;BME280;31382;50.200;8.674;2024-02-15T23:42:30;100149.41;;;12.56;70.55
45323;BME280;31382;50.200;8.674;2024-02-15T23:47:32;100153.13;;;12.55;70.29
45323;BME280;31382;50.200;8.674;2024-02-15T23:52:34;100162.69;;;12.58;70.43
45323;BME280;31382;50.200;8.674;2024-02-15T23:57:36;100164.09;;;12.54;70.45
